createdAt,value
2023-03-05T00:00:49.468Z,1.30
2023-03-05T00:03:16.190Z,0.97
2023-03-05T00:05:42.831Z,1.00
2023-03-05T00:08:09.451Z,1.27
2023-03-05T00:10:36.100Z,1.30
2023-03-05T00:13:02.729Z,1.40
2023-03-05T00:15:29.352Z,2.27
2023-03-05T00:17:55.945Z,1.13
2023-03-05T00:20:22.695Z,1.20
2023-03-05T00:22:49.289Z,1.23
2023-03-05T00:25:15.903Z,0.90
2023-03-05T00:27:42.511Z,1.10
2023-03-05T00:30:09.810Z,1.77
2023-03-05T00:32:36.517Z,0.80
2023-03-05T00:35:03.400Z,1.63
2023-03-05T00:37:30.071Z,0.80
2023-03-05T00:39:57.581Z,1.00
2023-03-05T00:42:24.379Z,1.57
2023-03-05T00:44:50.959Z,1.07
2023-03-05T00:47:18.433Z,0.90
2023-03-05T00:49:45.191Z,1.10
2023-03-05T00:52:11.814Z,1.30
2023-03-05T00:54:38.431Z,1.13
2023-03-05T00:57:05.802Z,0.97
2023-03-05T00:59:32.542Z,1.17
2023-03-05T01:01:59.242Z,1.10
2023-03-05T01:04:26.005Z,2.23
2023-03-05T01:06:52.635Z,1.17
2023-03-05T01:09:19.364Z,1.10
2023-03-05T01:11:45.957Z,1.33
2023-03-05T01:14:12.830Z,1.40
2023-03-05T01:16:39.437Z,3.30
2023-03-05T01:19:06.016Z,1.20
2023-03-05T01:21:32.613Z,1.33
2023-03-05T01:23:59.225Z,1.30
2023-03-05T01:26:25.927Z,1.00
2023-03-05T01:28:52.770Z,2.10
2023-03-05T01:31:19.808Z,1.53
2023-03-05T01:33:46.969Z,1.70
2023-03-05T01:36:16.782Z,1.63
2023-03-05T01:38:44.733Z,1.33
2023-03-05T01:41:12.036Z,1.33
2023-03-05T01:43:39.492Z,1.77
2023-03-05T01:46:28.686Z,3.17
2023-03-05T01:49:09.179Z,1.80
2023-03-05T01:51:41.871Z,2.20
2023-03-05T01:54:10.502Z,1.53
2023-03-05T01:56:39.032Z,1.80
2023-03-05T01:59:06.110Z,1.63
2023-03-05T02:01:38.413Z,1.80
2023-03-05T02:04:06.836Z,1.97
2023-03-05T02:06:34.396Z,1.47
2023-03-05T02:09:01.199Z,1.97
2023-03-05T02:11:27.926Z,2.07
2023-03-05T02:13:54.674Z,1.57
2023-03-05T02:16:21.354Z,1.67
2023-03-05T02:18:48.000Z,1.13
2023-03-05T02:21:14.623Z,1.27
2023-03-05T02:23:41.358Z,1.57
2023-03-05T02:26:10.851Z,1.13
2023-03-05T02:28:45.204Z,1.40
2023-03-05T02:31:23.375Z,0.93
2023-03-05T02:33:50.870Z,1.30
2023-03-05T02:36:18.385Z,1.23
2023-03-05T02:38:45.779Z,1.17
2023-03-05T02:41:13.257Z,1.13
2023-03-05T02:43:39.885Z,1.10
2023-03-05T02:46:07.165Z,0.80
2023-03-05T02:48:34.304Z,1.10
2023-03-05T02:51:02.949Z,1.20
2023-03-05T02:53:29.607Z,1.40
2023-03-05T02:55:56.293Z,1.10
2023-03-05T02:58:22.950Z,1.47
2023-03-05T03:00:50.093Z,1.30
2023-03-05T03:03:16.859Z,0.90
2023-03-05T03:05:43.540Z,0.90
2023-03-05T03:08:10.562Z,1.50
2023-03-05T03:10:37.592Z,1.30
2023-03-05T03:13:04.355Z,1.80
2023-03-05T03:15:31.023Z,1.00
2023-03-05T03:17:57.670Z,1.73
2023-03-05T03:20:24.472Z,1.93
2023-03-05T03:22:51.184Z,1.83
2023-03-05T03:25:21.728Z,1.20
2023-03-05T03:27:48.407Z,0.90
2023-03-05T03:30:15.765Z,1.73
2023-03-05T03:32:42.649Z,1.37
2023-03-05T03:35:10.118Z,1.67
2023-03-05T03:37:36.843Z,1.20
2023-03-05T03:40:05.745Z,1.50
2023-03-05T03:42:32.947Z,2.00
2023-03-05T03:45:00.474Z,1.80
2023-03-05T03:47:27.158Z,1.83
2023-03-05T03:49:54.918Z,1.90
2023-03-05T03:52:22.891Z,1.87
2023-03-05T03:54:52.312Z,1.60
2023-03-05T03:57:19.391Z,1.60
2023-03-05T03:59:46.099Z,1.70
2023-03-05T04:02:13.076Z,2.33
2023-03-05T04:04:39.886Z,2.20
2023-03-05T04:07:06.629Z,1.50
2023-03-05T04:09:33.289Z,1.63
2023-03-05T04:11:59.921Z,2.17
2023-03-05T04:14:27.254Z,3.40
2023-03-05T04:16:54.134Z,3.10
2023-03-05T04:19:20.861Z,2.77
2023-03-05T04:21:47.465Z,3.07
2023-03-05T04:24:15.158Z,3.30
2023-03-05T04:26:41.772Z,3.30
2023-03-05T04:29:08.386Z,2.13
2023-03-05T04:31:35.056Z,2.27
2023-03-05T04:34:01.686Z,1.87
2023-03-05T04:36:28.271Z,1.97
2023-03-05T04:38:54.921Z,1.70
2023-03-05T04:41:21.522Z,1.87
2023-03-05T04:43:48.134Z,1.60
2023-03-05T04:46:14.773Z,1.67
2023-03-05T04:48:41.723Z,1.20
2023-03-05T04:51:08.338Z,0.97
2023-03-05T04:53:36.030Z,1.40
2023-03-05T04:56:02.725Z,1.43
2023-03-05T04:58:29.613Z,1.77
2023-03-05T05:01:04.866Z,1.70
2023-03-05T05:03:31.930Z,1.23
2023-03-05T05:06:00.712Z,1.20
2023-03-05T05:08:29.357Z,1.17
2023-03-05T05:11:07.728Z,1.60
2023-03-05T05:13:35.268Z,1.23
2023-03-05T05:16:02.154Z,1.20
2023-03-05T05:18:28.828Z,1.80
2023-03-05T05:20:55.427Z,1.43
2023-03-05T05:23:22.104Z,1.90
2023-03-05T05:25:57.077Z,1.40
2023-03-05T05:28:23.713Z,1.43
2023-03-05T05:30:50.330Z,1.10
2023-03-05T05:33:16.962Z,1.03
2023-03-05T05:35:43.598Z,0.97
2023-03-05T05:38:10.283Z,1.00
2023-03-05T05:40:36.935Z,1.07
2023-03-05T05:43:03.568Z,1.10
2023-03-05T05:45:30.321Z,2.03
2023-03-05T05:47:57.120Z,1.10
2023-03-05T05:50:24.067Z,0.80
2023-03-05T05:52:53.700Z,1.13
2023-03-05T05:55:20.379Z,1.10
2023-03-05T05:57:47.303Z,0.80
2023-03-05T06:00:15.235Z,1.63
2023-03-05T06:02:43.368Z,1.00
2023-03-05T06:05:13.193Z,0.60
2023-03-05T06:07:39.869Z,0.87
2023-03-05T06:10:07.519Z,1.40
2023-03-05T06:12:34.217Z,1.17
2023-03-05T06:15:00.907Z,0.60
2023-03-05T06:17:30.662Z,0.77
2023-03-05T06:19:58.494Z,0.87
2023-03-05T06:22:25.396Z,1.00
2023-03-05T06:24:51.983Z,0.90
2023-03-05T06:27:18.618Z,2.30
2023-03-05T06:29:45.282Z,1.17
2023-03-05T06:32:12.043Z,1.00
2023-03-05T06:34:38.703Z,0.60
2023-03-05T06:37:05.356Z,0.73
2023-03-05T06:39:31.986Z,0.43
2023-03-05T06:41:58.663Z,0.50
2023-03-05T06:44:25.705Z,0.57
2023-03-05T06:46:52.407Z,0.50
2023-03-05T06:49:19.038Z,0.60
2023-03-05T06:51:45.700Z,0.50
2023-03-05T06:54:15.522Z,0.67
2023-03-05T06:56:45.100Z,0.63
2023-03-05T06:59:13.862Z,0.40
2023-03-05T07:01:40.660Z,0.97
2023-03-05T07:04:07.436Z,1.10
2023-03-05T07:06:36.390Z,0.50
2023-03-05T07:09:05.290Z,0.60
2023-03-05T07:11:32.675Z,0.43
2023-03-05T07:13:59.506Z,0.80
2023-03-05T07:16:28.547Z,0.93
2023-03-05T07:18:57.304Z,0.80
2023-03-05T07:21:26.414Z,1.00
2023-03-05T07:23:57.735Z,1.27
2023-03-05T07:26:24.985Z,1.30
2023-03-05T07:28:52.014Z,0.90
2023-03-05T07:31:21.376Z,1.93
2023-03-05T07:33:49.881Z,1.43
2023-03-05T07:36:17.464Z,1.80
2023-03-05T07:38:44.627Z,0.70
2023-03-05T07:41:13.971Z,0.97
2023-03-05T07:43:40.810Z,0.90
2023-03-05T07:46:09.511Z,0.97
2023-03-05T07:48:36.196Z,0.90
2023-03-05T07:51:05.380Z,0.67
2023-03-05T07:53:32.002Z,0.80
2023-03-05T07:55:58.835Z,0.60
2023-03-05T07:58:25.570Z,0.70
2023-03-05T08:00:52.352Z,0.80
2023-03-05T08:03:19.195Z,0.50
2023-03-05T08:05:45.873Z,1.00
2023-03-05T08:08:12.935Z,0.70
2023-03-05T08:10:39.654Z,1.23
2023-03-05T08:13:06.635Z,1.30
2023-03-05T08:15:33.400Z,1.93
2023-03-05T08:18:00.628Z,2.30
2023-03-05T08:20:27.366Z,1.60
2023-03-05T08:22:53.943Z,1.97
2023-03-05T08:25:20.599Z,0.70
2023-03-05T08:27:48.489Z,1.50
2023-03-05T08:30:21.637Z,1.30
2023-03-05T08:32:52.115Z,1.27
2023-03-05T08:35:18.779Z,1.10
2023-03-05T08:37:45.467Z,1.27
2023-03-05T08:40:12.633Z,1.60
2023-03-05T08:42:39.282Z,1.33
2023-03-05T08:45:06.567Z,1.27
2023-03-05T08:47:33.203Z,1.30
2023-03-05T08:49:59.843Z,1.23
2023-03-05T08:52:27.313Z,1.13
2023-03-05T08:54:54.099Z,1.37
2023-03-05T08:57:20.870Z,0.97
2023-03-05T08:59:47.637Z,0.93
2023-03-05T09:02:14.453Z,1.33
2023-03-05T09:04:41.326Z,1.50
2023-03-05T09:07:08.162Z,1.60
2023-03-05T09:09:35.082Z,1.40
2023-03-05T09:12:01.964Z,0.83
2023-03-05T09:14:29.006Z,1.17
2023-03-05T09:16:56.813Z,1.07
2023-03-05T09:19:23.777Z,0.90
2023-03-05T09:21:50.394Z,0.93
2023-03-05T09:24:17.028Z,1.00
2023-03-05T09:26:44.169Z,1.20
2023-03-05T09:29:11.114Z,1.30
2023-03-05T09:31:38.313Z,1.33
2023-03-05T09:34:07.220Z,1.67
2023-03-05T09:36:34.218Z,1.70
2023-03-05T09:39:00.967Z,1.10
2023-03-05T09:41:39.617Z,2.93
2023-03-05T09:44:43.282Z,1.53
2023-03-05T09:47:47.631Z,1.40
2023-03-05T09:50:51.018Z,1.13
2023-03-05T09:53:55.682Z,1.40
2023-03-05T09:56:34.610Z,1.50
2023-03-05T09:59:17.965Z,1.53
2023-03-05T10:01:45.370Z,1.80
2023-03-05T10:04:41.133Z,1.67
2023-03-05T10:07:26.319Z,1.67
2023-03-05T10:09:59.155Z,1.87
2023-03-05T10:12:42.536Z,1.10
2023-03-05T10:15:20.763Z,1.40
2023-03-05T10:18:14.156Z,2.00
2023-03-05T10:21:08.971Z,1.80
2023-03-05T10:23:58.878Z,1.80
2023-03-05T10:26:38.223Z,1.33
2023-03-05T10:29:18.144Z,1.30
2023-03-05T10:31:58.505Z,1.23
2023-03-05T10:34:54.237Z,1.27
2023-03-05T10:37:41.083Z,1.10
2023-03-05T10:40:29.934Z,1.57
2023-03-05T10:43:24.587Z,1.40
2023-03-05T10:45:53.851Z,1.00
2023-03-05T10:48:36.670Z,1.63
2023-03-05T10:51:36.107Z,1.13
2023-03-05T10:54:16.432Z,0.93
2023-03-05T10:56:43.039Z,1.30
2023-03-05T10:59:09.669Z,1.33
2023-03-05T11:01:37.507Z,0.67
2023-03-05T11:04:25.053Z,0.87
2023-03-05T11:06:51.699Z,1.33
2023-03-05T11:09:29.675Z,0.97
2023-03-05T11:12:11.605Z,0.83
2023-03-05T11:14:44.744Z,1.17
2023-03-05T11:17:32.571Z,1.13
2023-03-05T11:20:28.812Z,0.87
2023-03-05T11:23:20.102Z,1.07
2023-03-05T11:26:01.203Z,0.67
2023-03-05T11:28:36.778Z,0.90
2023-03-05T11:31:07.641Z,0.70
2023-03-05T11:33:36.115Z,0.80
2023-03-05T11:36:30.569Z,1.23
2023-03-05T11:39:09.948Z,1.37
2023-03-05T11:41:47.606Z,0.80
2023-03-05T11:44:21.296Z,1.13
2023-03-05T11:47:18.569Z,1.23
2023-03-05T11:49:48.618Z,1.47
2023-03-05T11:52:32.074Z,1.60
2023-03-05T11:55:05.896Z,1.30
2023-03-05T11:57:43.501Z,1.20
2023-03-05T12:00:17.591Z,1.30
2023-03-05T12:02:45.987Z,1.13
2023-03-05T12:05:15.997Z,1.70
2023-03-05T12:07:47.067Z,1.60
2023-03-05T12:10:20.702Z,1.70
2023-03-05T12:12:55.845Z,1.40
2023-03-05T12:15:47.508Z,1.40
2023-03-05T12:18:40.855Z,1.43
2023-03-05T12:21:13.651Z,1.70
2023-03-05T12:23:46.603Z,0.60
2023-03-05T12:26:13.263Z,0.40
2023-03-05T12:28:43.045Z,0.77
2023-03-05T12:31:09.665Z,0.50
2023-03-05T12:33:42.163Z,0.73
2023-03-05T12:36:20.583Z,0.73
2023-03-05T12:38:55.269Z,0.80
2023-03-05T12:41:27.820Z,0.60
2023-03-05T12:44:06.556Z,0.57
2023-03-05T12:46:41.763Z,0.40
2023-03-05T12:49:21.184Z,0.60
2023-03-05T12:51:53.143Z,0.70
2023-03-05T12:54:28.965Z,0.67
2023-03-05T12:57:00.617Z,0.40
2023-03-05T12:59:40.523Z,0.47
2023-03-05T13:02:19.816Z,0.50
2023-03-05T13:04:47.108Z,0.60
2023-03-05T13:07:18.433Z,0.77
2023-03-05T13:10:00.401Z,0.67
2023-03-05T13:12:29.806Z,0.90
2023-03-05T13:15:00.099Z,0.87
2023-03-05T13:17:38.289Z,0.50
2023-03-05T13:20:26.929Z,1.07
2023-03-05T13:23:09.660Z,0.53
2023-03-05T13:25:36.308Z,0.60
2023-03-05T13:28:12.657Z,0.40
2023-03-05T13:30:39.447Z,0.67
2023-03-05T13:33:14.602Z,0.60
2023-03-05T13:35:46.099Z,0.63
2023-03-05T13:38:24.128Z,0.60
2023-03-05T13:41:08.248Z,0.57
2023-03-05T13:43:41.673Z,0.50
2023-03-05T13:46:08.347Z,0.53
2023-03-05T13:48:34.953Z,0.70
2023-03-05T13:51:06.768Z,4.00
2023-03-05T13:53:34.310Z,0.50
2023-03-05T13:56:04.532Z,0.67
2023-03-05T13:58:49.188Z,0.70
2023-03-05T14:01:36.807Z,0.63
2023-03-05T14:04:08.449Z,0.80
2023-03-05T14:06:49.211Z,0.70
2023-03-05T14:09:38.828Z,1.07
2023-03-05T14:12:21.160Z,0.60
2023-03-05T14:14:48.877Z,0.70
2023-03-05T14:17:27.583Z,0.87
2023-03-05T14:20:12.901Z,0.90
2023-03-05T14:22:42.971Z,0.80
2023-03-05T14:25:36.289Z,0.70
2023-03-05T14:28:07.509Z,0.60
2023-03-05T14:30:36.210Z,0.80
2023-03-05T14:33:03.484Z,0.60
2023-03-05T14:35:30.667Z,0.60
2023-03-05T14:37:59.217Z,0.93
2023-03-05T14:40:31.924Z,0.60
2023-03-05T14:43:00.425Z,0.87
2023-03-05T14:45:31.708Z,0.60
2023-03-05T14:48:00.514Z,0.70
2023-03-05T14:50:36.566Z,0.80
2023-03-05T14:53:09.211Z,0.87
2023-03-05T14:55:38.282Z,0.50
2023-03-05T14:58:15.331Z,0.43
2023-03-05T15:00:42.602Z,0.80
2023-03-05T15:03:13.364Z,0.50
2023-03-05T15:05:40.416Z,0.37
2023-03-05T15:08:13.633Z,1.00
2023-03-05T15:10:40.262Z,0.50
2023-03-05T15:13:06.857Z,0.60
2023-03-05T15:15:33.462Z,0.87
2023-03-05T15:18:01.296Z,0.60
2023-03-05T15:20:29.932Z,1.00
2023-03-05T15:22:56.584Z,0.70
2023-03-05T15:25:26.526Z,0.60
2023-03-05T15:27:53.258Z,0.80
2023-03-05T15:30:31.032Z,0.50
2023-03-05T15:33:00.941Z,1.30
2023-03-05T15:35:27.746Z,1.03
2023-03-05T15:37:54.958Z,0.87
2023-03-05T15:40:21.727Z,0.87
2023-03-05T15:42:48.603Z,0.80
2023-03-05T15:45:16.274Z,0.50
2023-03-05T15:47:42.915Z,0.70
2023-03-05T15:50:10.358Z,1.03
2023-03-05T15:52:36.992Z,0.60
2023-03-05T15:55:03.903Z,1.00
2023-03-05T15:57:36.113Z,0.70
2023-03-05T16:00:08.071Z,1.10
2023-03-05T16:02:34.725Z,0.60
2023-03-05T16:05:01.382Z,0.53
2023-03-05T16:07:29.232Z,0.50
2023-03-05T16:09:57.215Z,0.60
2023-03-05T16:12:28.535Z,0.50
2023-03-05T16:14:55.269Z,0.90
2023-03-05T16:17:23.328Z,0.70
2023-03-05T16:19:54.449Z,0.80
2023-03-05T16:22:21.162Z,0.83
2023-03-05T16:24:47.778Z,0.73
2023-03-05T16:27:14.370Z,0.63
2023-03-05T16:29:40.985Z,0.50
2023-03-05T16:32:07.808Z,0.70
2023-03-05T16:34:34.827Z,0.80
2023-03-05T16:37:04.379Z,0.80
2023-03-05T16:39:31.385Z,0.97
2023-03-05T16:41:58.118Z,0.70
2023-03-05T16:44:25.053Z,0.90
2023-03-05T16:46:53.791Z,0.60
2023-03-05T16:49:20.958Z,0.80
2023-03-05T16:51:47.704Z,0.80
2023-03-05T16:54:14.356Z,0.80
2023-03-05T16:56:40.952Z,0.77
2023-03-05T16:59:07.642Z,0.90
2023-03-05T17:01:34.402Z,0.87
2023-03-05T17:04:02.013Z,0.97
2023-03-05T17:06:31.778Z,0.50
2023-03-05T17:08:59.167Z,0.90
2023-03-05T17:11:25.952Z,0.90
2023-03-05T17:13:53.030Z,0.50
2023-03-05T17:16:20.593Z,0.83
2023-03-05T17:18:47.654Z,0.93
2023-03-05T17:21:15.484Z,1.30
2023-03-05T17:23:42.632Z,1.37
2023-03-05T17:26:12.449Z,0.90
2023-03-05T17:28:39.786Z,0.73
2023-03-05T17:31:06.531Z,1.00
2023-03-05T17:33:34.580Z,0.90
2023-03-05T17:36:02.115Z,0.90
2023-03-05T17:38:29.139Z,1.07
2023-03-05T17:40:56.019Z,1.10
2023-03-05T17:43:23.043Z,1.30
2023-03-05T17:45:49.825Z,1.50
2023-03-05T17:48:16.590Z,1.00
2023-03-05T17:50:44.936Z,1.07
2023-03-05T17:53:11.874Z,0.87
2023-03-05T17:55:39.750Z,1.10
2023-03-05T17:58:06.765Z,1.23
2023-03-05T18:00:33.521Z,1.50
2023-03-05T18:03:00.324Z,0.90
2023-03-05T18:05:27.815Z,1.23
2023-03-05T18:07:55.514Z,1.47
2023-03-05T18:10:24.975Z,1.10
2023-03-05T18:12:51.933Z,1.57
2023-03-05T18:15:19.466Z,1.10
2023-03-05T18:17:46.251Z,1.10
2023-03-05T18:20:23.187Z,0.93
2023-03-05T18:22:49.803Z,1.20
2023-03-05T18:25:16.564Z,1.27
2023-03-05T18:27:43.160Z,1.60
2023-03-05T18:30:10.461Z,1.80
2023-03-05T18:32:37.201Z,1.90
2023-03-05T18:35:05.460Z,1.80
2023-03-05T18:37:32.077Z,1.57
2023-03-05T18:39:59.117Z,1.50
2023-03-05T18:42:25.695Z,1.90
2023-03-05T18:44:52.260Z,1.70
2023-03-05T18:47:18.950Z,1.93
2023-03-05T18:49:45.549Z,1.93
2023-03-05T18:52:12.656Z,1.67
2023-03-05T18:54:40.176Z,1.57
2023-03-05T18:57:06.847Z,3.00
2023-03-05T18:59:33.503Z,2.40
2023-03-05T19:02:00.095Z,2.37
2023-03-05T19:04:27.472Z,2.17
2023-03-05T19:06:54.177Z,2.87
2023-03-05T19:09:30.899Z,2.33
2023-03-05T19:11:57.507Z,1.43
2023-03-05T19:14:24.153Z,2.13
2023-03-05T19:16:50.760Z,5.20
2023-03-05T19:19:26.368Z,3.73
2023-03-05T19:21:56.329Z,12.43
2023-03-05T19:24:24.624Z,6.40
2023-03-05T19:26:55.245Z,2.50
2023-03-05T19:29:23.906Z,2.53
2023-03-05T19:31:51.061Z,2.40
2023-03-05T19:34:20.313Z,2.70
2023-03-05T19:36:47.621Z,1.97
2023-03-05T19:39:14.215Z,2.60
2023-03-05T19:41:40.859Z,2.77
2023-03-05T19:44:07.596Z,2.60
2023-03-05T19:46:34.342Z,2.57
2023-03-05T19:49:01.270Z,4.03
2023-03-05T19:51:28.459Z,3.33
2023-03-05T19:53:55.075Z,2.27
2023-03-05T19:56:21.729Z,2.40
2023-03-05T19:58:48.989Z,1.83
2023-03-05T20:01:19.795Z,2.10
2023-03-05T20:03:48.700Z,1.80
2023-03-05T20:06:16.005Z,2.10
2023-03-05T20:08:43.315Z,2.53
2023-03-05T20:11:12.039Z,2.50
2023-03-05T20:13:39.616Z,2.90
2023-03-05T20:16:20.023Z,2.97
2023-03-05T20:18:50.144Z,2.73
2023-03-05T20:21:21.456Z,2.97
2023-03-05T20:23:48.297Z,2.47
2023-03-05T20:26:14.972Z,3.00
2023-03-05T20:28:41.865Z,2.33
2023-03-05T20:31:08.558Z,2.77
2023-03-05T20:33:35.411Z,2.30
2023-03-05T20:36:02.191Z,2.13
2023-03-05T20:38:30.312Z,2.37
2023-03-05T20:41:03.557Z,2.20
2023-03-05T20:43:33.604Z,2.40
2023-03-05T20:46:00.958Z,2.30
2023-03-05T20:48:29.745Z,2.50
2023-03-05T20:50:56.814Z,2.63
2023-03-05T20:53:24.187Z,3.00
2023-03-05T20:55:50.930Z,3.23
2023-03-05T20:58:17.676Z,2.53
2023-03-05T21:00:44.356Z,3.00
2023-03-05T21:03:11.116Z,3.40
2023-03-05T21:05:37.984Z,3.10
2023-03-05T21:08:05.332Z,3.13
2023-03-05T21:10:32.613Z,3.10
2023-03-05T21:13:00.887Z,3.57
2023-03-05T21:15:29.856Z,3.50
2023-03-05T21:17:57.163Z,2.83
2023-03-05T21:20:27.635Z,3.50
2023-03-05T21:22:56.227Z,3.07
2023-03-05T21:25:28.807Z,3.17
2023-03-05T21:28:03.519Z,3.53
2023-03-05T21:30:39.719Z,3.10
2023-03-05T21:33:10.203Z,3.33
2023-03-05T21:35:37.513Z,2.80
2023-03-05T21:38:05.995Z,2.87
2023-03-05T21:40:33.706Z,3.10
2023-03-05T21:43:00.507Z,3.93
2023-03-05T21:45:29.298Z,2.07
2023-03-05T21:47:56.610Z,3.30
2023-03-05T21:50:24.840Z,3.10
2023-03-05T21:52:52.029Z,2.83
2023-03-05T21:55:30.304Z,3.13
2023-03-05T21:57:56.922Z,2.03
2023-03-05T22:00:23.888Z,2.97
2023-03-05T22:02:50.548Z,2.90
2023-03-05T22:05:17.295Z,3.97
2023-03-05T22:07:44.513Z,3.70
2023-03-05T22:10:13.755Z,5.13
2023-03-05T22:13:09.820Z,5.43
2023-03-05T22:16:05.982Z,5.80
2023-03-05T22:18:33.418Z,6.27
2023-03-05T22:21:00.766Z,6.00
2023-03-05T22:23:31.341Z,6.53
2023-03-05T22:26:06.584Z,5.60
2023-03-05T22:28:34.438Z,5.20
2023-03-05T22:31:01.292Z,6.10
2023-03-05T22:33:28.241Z,6.60
2023-03-05T22:35:54.990Z,6.23
2023-03-05T22:38:22.316Z,6.10
2023-03-05T22:40:49.944Z,5.80
2023-03-05T22:43:17.919Z,8.30
2023-03-05T22:45:45.129Z,7.00
2023-03-05T22:48:12.550Z,7.23
2023-03-05T22:50:40.657Z,7.07
2023-03-05T22:53:07.637Z,6.83
2023-03-05T22:55:34.379Z,6.70
2023-03-05T22:58:01.210Z,6.57
2023-03-05T23:00:27.868Z,6.97
2023-03-05T23:02:54.598Z,6.73
2023-03-05T23:05:21.738Z,7.07
2023-03-05T23:07:48.883Z,6.97
2023-03-05T23:10:20.801Z,5.93
2023-03-05T23:12:50.096Z,6.27
2023-03-05T23:15:25.967Z,6.07
2023-03-05T23:17:52.881Z,6.63
2023-03-05T23:20:22.185Z,6.30
2023-03-05T23:22:52.679Z,6.07
2023-03-05T23:25:22.661Z,6.57
2023-03-05T23:27:50.117Z,6.70
2023-03-05T23:30:27.616Z,6.87
2023-03-05T23:33:13.107Z,7.00
2023-03-05T23:35:42.864Z,6.87
2023-03-05T23:38:12.818Z,6.17
2023-03-05T23:40:45.886Z,6.83
2023-03-05T23:43:13.702Z,7.60
2023-03-05T23:45:45.204Z,6.60
2023-03-05T23:48:12.118Z,6.20
2023-03-05T23:50:41.979Z,5.00
2023-03-05T23:53:09.721Z,6.40
2023-03-05T23:55:46.189Z,6.17
2023-03-05T23:58:13.447Z,5.20
